Terminal Aerodrome Forecast
Issued by NWS

Home | Current Version | Previous Version | Text Only | Print | Product List | Glossary On
Versions: 1 2 3 4 5 6 7 8 9 10 11 12 13 14 15 16 17 18 19 20 21 22 23 24 25 26 27
000
FTPQ31 PGUM 191700 RRA
TAFPQ
TAF

PTRO 191743Z 1918/2018 VRB05KT P6SM VCSH SCT015CB BKN110
     FM192200 32008KT P6SM VCSH SCT016 BKN120
     FM200900 28008KT P6SM VCSH SCT016 SCT120=

USA.gov is the U.S. government's official web portal to all federal, state and local government web resources and services.